createdAt,value
2023-03-29T00:00:19.980Z,59.22
2023-03-29T00:03:17.304Z,58.87
2023-03-29T00:05:51.760Z,58.19
2023-03-29T00:08:25.990Z,58.17
2023-03-29T00:11:04.315Z,60.17
2023-03-29T00:13:38.797Z,59.79
2023-03-29T00:16:13.809Z,58.69
2023-03-29T00:18:47.442Z,59.87
2023-03-29T00:21:24.301Z,59.31
2023-03-29T00:23:58.644Z,59.67
2023-03-29T00:26:32.306Z,59.82
2023-03-29T00:29:05.791Z,60.60
2023-03-29T00:31:39.442Z,59.93
2023-03-29T00:34:12.752Z,60.24
2023-03-29T00:36:46.639Z,61.33
2023-03-29T00:39:21.249Z,59.72
2023-03-29T00:41:55.904Z,59.85
2023-03-29T00:45:04.928Z,59.14
2023-03-29T00:47:47.389Z,58.48
2023-03-29T00:50:31.554Z,59.54
2023-03-29T00:53:10.510Z,59.68
2023-03-29T00:56:14.658Z,60.12
2023-03-29T00:59:03.080Z,60.00
2023-03-29T01:01:45.874Z,59.79
2023-03-29T01:04:37.543Z,59.44
2023-03-29T01:07:36.005Z,58.61
2023-03-29T01:10:25.471Z,58.49
2023-03-29T01:13:10.082Z,58.64
2023-03-29T01:15:47.512Z,58.72
2023-03-29T01:18:22.853Z,58.22
2023-03-29T01:21:21.026Z,58.05
2023-03-29T01:24:10.223Z,58.37
2023-03-29T01:26:47.351Z,58.95
2023-03-29T01:29:54.996Z,58.36
2023-03-29T01:32:48.572Z,58.11
2023-03-29T01:35:43.211Z,58.42
2023-03-29T01:38:28.642Z,58.24
2023-03-29T01:41:04.178Z,57.90
2023-03-29T01:43:45.195Z,58.32
2023-03-29T01:46:38.366Z,58.46
2023-03-29T01:49:30.170Z,59.37
2023-03-29T01:52:13.466Z,58.80
2023-03-29T01:55:01.936Z,58.31
2023-03-29T01:57:36.696Z,58.78
2023-03-29T02:00:13.222Z,59.15
2023-03-29T02:02:49.951Z,59.30
2023-03-29T02:05:27.401Z,58.88
2023-03-29T02:08:06.673Z,58.61
2023-03-29T02:10:40.475Z,58.11
2023-03-29T02:13:14.272Z,57.84
2023-03-29T02:15:51.448Z,57.69
2023-03-29T02:18:25.292Z,57.70
2023-03-29T02:21:00.074Z,57.44
2023-03-29T02:23:49.651Z,57.27
2023-03-29T02:26:24.914Z,57.02
2023-03-29T02:28:58.800Z,56.77
2023-03-29T02:31:59.841Z,56.60
2023-03-29T02:34:38.177Z,56.41
2023-03-29T02:37:16.633Z,56.23
2023-03-29T02:39:53.469Z,56.20
2023-03-29T02:42:28.807Z,56.16
2023-03-29T02:45:04.419Z,56.18
2023-03-29T02:47:43.758Z,55.97
2023-03-29T02:50:17.772Z,55.99
2023-03-29T02:53:02.383Z,55.99
2023-03-29T02:55:37.075Z,55.85
2023-03-29T02:58:11.586Z,55.69
2023-03-29T03:00:51.346Z,55.07
2023-03-29T03:03:26.171Z,55.05
2023-03-29T03:06:02.332Z,55.42
2023-03-29T03:08:37.107Z,55.29
2023-03-29T03:11:10.950Z,55.28
2023-03-29T03:13:44.834Z,55.11
2023-03-29T03:16:18.734Z,55.05
2023-03-29T03:18:54.633Z,55.28
2023-03-29T03:21:30.392Z,55.28
2023-03-29T03:24:08.597Z,54.81
2023-03-29T03:26:42.442Z,54.44
2023-03-29T03:29:16.929Z,54.70
2023-03-29T03:32:19.473Z,54.64
2023-03-29T03:34:57.020Z,54.78
2023-03-29T03:37:32.014Z,54.90
2023-03-29T03:40:11.349Z,54.71
2023-03-29T03:42:45.053Z,54.88
2023-03-29T03:45:19.470Z,54.13
2023-03-29T03:48:10.433Z,53.68
2023-03-29T03:50:57.004Z,53.71
2023-03-29T03:53:31.867Z,53.85
2023-03-29T03:56:30.404Z,54.28
2023-03-29T03:59:24.665Z,54.20
2023-03-29T04:02:14.203Z,54.25
2023-03-29T04:04:50.323Z,54.24
2023-03-29T04:07:26.278Z,54.19
2023-03-29T04:10:17.013Z,54.11
2023-03-29T04:13:09.196Z,54.03
2023-03-29T04:15:55.019Z,54.05
2023-03-29T04:18:28.927Z,54.06
2023-03-29T04:21:05.546Z,54.03
2023-03-29T04:23:39.703Z,54.05
2023-03-29T04:26:13.103Z,54.16
2023-03-29T04:28:46.830Z,54.21
2023-03-29T04:31:29.996Z,54.28
2023-03-29T04:34:15.929Z,54.18
2023-03-29T04:36:53.944Z,54.26
2023-03-29T04:39:36.687Z,54.24
2023-03-29T04:42:12.166Z,54.11
2023-03-29T04:44:46.319Z,54.08
2023-03-29T04:47:23.791Z,54.11
2023-03-29T04:50:02.288Z,54.11
2023-03-29T04:52:45.917Z,54.02
2023-03-29T04:55:19.670Z,54.06
2023-03-29T04:58:23.081Z,54.09
2023-03-29T05:01:01.880Z,54.07
2023-03-29T05:03:42.552Z,54.13
2023-03-29T05:06:25.705Z,54.10
2023-03-29T05:08:59.636Z,53.98
2023-03-29T05:11:40.387Z,53.78
2023-03-29T05:14:14.647Z,53.66
2023-03-29T05:16:48.433Z,53.44
2023-03-29T05:19:22.566Z,53.27
2023-03-29T05:21:56.259Z,53.12
2023-03-29T05:24:30.404Z,52.38
2023-03-29T05:27:09.284Z,52.37
2023-03-29T05:29:43.172Z,51.78
2023-03-29T05:32:41.273Z,51.30
2023-03-29T05:35:15.834Z,51.02
2023-03-29T05:37:52.310Z,50.14
2023-03-29T05:40:26.722Z,49.87
2023-03-29T05:43:22.355Z,50.00
2023-03-29T05:45:58.517Z,49.88
2023-03-29T05:48:33.107Z,49.34
2023-03-29T05:51:06.308Z,49.84
2023-03-29T05:53:39.504Z,49.85
2023-03-29T05:56:16.983Z,49.68
2023-03-29T05:58:54.971Z,49.74
2023-03-29T06:01:29.286Z,49.24
2023-03-29T06:04:10.139Z,49.15
2023-03-29T06:06:49.199Z,49.04
2023-03-29T06:09:23.462Z,48.68
2023-03-29T06:12:14.741Z,48.27
2023-03-29T06:14:58.900Z,48.11
2023-03-29T06:17:37.768Z,48.19
2023-03-29T06:20:12.345Z,47.40
2023-03-29T06:22:48.486Z,47.34
2023-03-29T06:25:21.966Z,48.05
2023-03-29T06:27:56.313Z,47.84
2023-03-29T06:30:29.933Z,47.81
2023-03-29T06:33:03.627Z,47.93
2023-03-29T06:35:58.214Z,47.31
2023-03-29T06:38:34.352Z,46.01
2023-03-29T06:41:29.747Z,45.31
2023-03-29T06:44:13.993Z,44.71
2023-03-29T06:47:00.010Z,44.51
2023-03-29T06:49:33.114Z,44.13
2023-03-29T06:52:27.632Z,44.01
2023-03-29T06:55:02.290Z,43.46
2023-03-29T06:57:35.388Z,43.65
2023-03-29T07:00:20.355Z,43.63
2023-03-29T07:03:27.038Z,43.21
2023-03-29T07:06:13.050Z,43.37
2023-03-29T07:08:47.789Z,43.48
2023-03-29T07:11:27.229Z,43.45
2023-03-29T07:14:03.896Z,43.68
2023-03-29T07:16:38.328Z,43.93
2023-03-29T07:19:24.648Z,43.92
2023-03-29T07:21:59.176Z,43.24
2023-03-29T07:24:44.568Z,43.22
2023-03-29T07:27:18.760Z,43.10
2023-03-29T07:29:54.718Z,42.49
2023-03-29T07:32:29.302Z,42.63
2023-03-29T07:35:18.449Z,42.54
2023-03-29T07:37:53.114Z,42.24
2023-03-29T07:40:27.751Z,40.87
2023-03-29T07:43:09.732Z,40.12
2023-03-29T07:45:45.998Z,39.70
2023-03-29T07:48:20.592Z,40.04
2023-03-29T07:51:00.083Z,40.38
2023-03-29T07:53:43.599Z,40.48
2023-03-29T07:56:37.658Z,40.40
2023-03-29T07:59:52.248Z,40.11
2023-03-29T08:02:29.683Z,40.06
2023-03-29T08:05:05.658Z,40.12
2023-03-29T08:07:54.570Z,39.88
2023-03-29T08:10:43.772Z,39.52
2023-03-29T08:13:25.254Z,39.65
2023-03-29T08:16:22.939Z,38.90
2023-03-29T08:19:03.635Z,39.03
2023-03-29T08:21:54.724Z,38.64
2023-03-29T08:24:30.304Z,38.16
2023-03-29T08:27:07.492Z,38.39
2023-03-29T08:29:42.153Z,37.84
2023-03-29T08:32:15.836Z,36.62
2023-03-29T08:34:49.403Z,36.63
2023-03-29T08:37:35.120Z,36.20
2023-03-29T08:40:09.039Z,36.14
2023-03-29T08:43:04.637Z,36.43
2023-03-29T08:46:11.626Z,36.73
2023-03-29T08:48:54.527Z,36.15
2023-03-29T08:51:43.139Z,35.57
2023-03-29T08:54:27.580Z,35.77
2023-03-29T08:57:28.960Z,36.18
2023-03-29T09:00:11.085Z,35.75
2023-03-29T09:02:48.003Z,35.53
2023-03-29T09:05:35.478Z,35.88
2023-03-29T09:08:28.158Z,35.13
2023-03-29T09:11:34.000Z,34.74
2023-03-29T09:14:16.259Z,35.51
2023-03-29T09:17:01.677Z,36.73
2023-03-29T09:19:44.998Z,37.44
2023-03-29T09:22:25.243Z,37.97
2023-03-29T09:25:25.583Z,38.01
2023-03-29T09:28:15.962Z,37.07
2023-03-29T09:31:28.105Z,35.59
2023-03-29T09:34:06.495Z,35.72
2023-03-29T09:37:13.712Z,35.90
2023-03-29T09:39:47.686Z,35.81
2023-03-29T09:42:22.400Z,35.46
2023-03-29T09:44:59.517Z,34.54
2023-03-29T09:47:55.030Z,35.07
2023-03-29T09:50:38.638Z,35.04
2023-03-29T09:53:15.808Z,34.19
2023-03-29T09:55:54.367Z,33.05
2023-03-29T09:58:58.533Z,32.46
2023-03-29T10:01:41.938Z,32.60
2023-03-29T10:04:17.603Z,32.99
2023-03-29T10:06:57.378Z,33.68
2023-03-29T10:09:33.091Z,37.09
2023-03-29T10:12:19.670Z,39.37
2023-03-29T10:14:56.313Z,40.77
2023-03-29T10:17:34.135Z,39.15
2023-03-29T10:20:10.232Z,38.11
2023-03-29T10:22:56.986Z,37.94
2023-03-29T10:25:33.496Z,37.43
2023-03-29T10:28:17.984Z,35.71
2023-03-29T10:30:57.481Z,35.09
2023-03-29T10:33:38.470Z,34.89
2023-03-29T10:36:14.636Z,34.74
2023-03-29T10:38:48.294Z,35.12
2023-03-29T10:41:24.507Z,36.07
2023-03-29T10:43:57.609Z,36.96
2023-03-29T10:46:45.065Z,36.78
2023-03-29T10:49:22.500Z,36.24
2023-03-29T10:51:55.778Z,35.95
2023-03-29T10:54:29.488Z,35.16
2023-03-29T10:57:09.073Z,34.60
2023-03-29T10:59:49.457Z,35.19
2023-03-29T11:02:48.335Z,34.93
2023-03-29T11:06:04.720Z,34.87
2023-03-29T11:08:37.279Z,34.13
2023-03-29T11:11:25.093Z,33.54
2023-03-29T11:14:05.493Z,33.56
2023-03-29T11:17:00.419Z,33.42
2023-03-29T11:19:36.707Z,33.55
2023-03-29T11:22:30.565Z,34.08
2023-03-29T11:25:16.182Z,34.70
2023-03-29T11:28:01.301Z,35.06
2023-03-29T11:30:44.436Z,35.82
2023-03-29T11:33:39.472Z,37.30
2023-03-29T11:36:39.549Z,37.71
2023-03-29T11:39:26.557Z,38.55
2023-03-29T11:42:11.702Z,40.78
2023-03-29T11:44:47.077Z,40.59
2023-03-29T11:47:32.066Z,39.29
2023-03-29T11:50:26.985Z,39.28
2023-03-29T11:53:10.708Z,38.60
2023-03-29T11:55:45.793Z,37.64
2023-03-29T11:58:31.676Z,37.41
2023-03-29T12:01:16.595Z,36.26
2023-03-29T12:04:09.448Z,35.96
2023-03-29T12:06:51.770Z,35.83
2023-03-29T12:09:40.830Z,35.34
2023-03-29T12:12:44.059Z,35.70
2023-03-29T12:15:33.565Z,36.14
2023-03-29T12:18:24.980Z,37.18
2023-03-29T12:21:04.374Z,38.77
2023-03-29T12:23:40.318Z,39.84
2023-03-29T12:26:41.142Z,40.11
2023-03-29T12:29:42.648Z,39.45
2023-03-29T12:32:39.419Z,38.02
2023-03-29T12:35:53.445Z,37.64
2023-03-29T12:39:03.738Z,36.78
2023-03-29T12:42:19.911Z,36.16
2023-03-29T12:45:36.951Z,36.02
2023-03-29T12:48:17.503Z,36.26
2023-03-29T12:50:54.594Z,36.72
2023-03-29T12:53:43.997Z,36.45
2023-03-29T12:56:19.428Z,36.49
2023-03-29T12:59:12.916Z,36.82
2023-03-29T13:02:06.378Z,36.97
2023-03-29T13:05:02.602Z,36.97
2023-03-29T13:07:47.759Z,37.06
2023-03-29T13:10:42.835Z,36.70
2023-03-29T13:13:25.254Z,36.88
2023-03-29T13:16:11.550Z,36.83
2023-03-29T13:19:01.936Z,37.66
2023-03-29T13:21:56.552Z,40.29
2023-03-29T13:24:54.425Z,42.28
2023-03-29T13:28:02.513Z,44.52
2023-03-29T13:31:08.958Z,46.18
2023-03-29T13:34:15.724Z,47.59
2023-03-29T13:36:57.520Z,47.92
2023-03-29T13:39:53.569Z,47.97
2023-03-29T13:42:37.728Z,47.72
2023-03-29T13:45:26.025Z,46.11
2023-03-29T13:48:26.520Z,44.41
2023-03-29T13:51:28.595Z,42.77
2023-03-29T13:54:22.860Z,41.42
2023-03-29T13:57:22.185Z,41.57
2023-03-29T14:00:07.975Z,41.85
2023-03-29T14:02:58.501Z,41.60
2023-03-29T14:05:33.767Z,40.65
2023-03-29T14:08:35.427Z,39.17
2023-03-29T14:11:21.987Z,38.19
2023-03-29T14:14:00.301Z,38.06
2023-03-29T14:16:37.451Z,36.65
2023-03-29T14:19:34.207Z,37.04
2023-03-29T14:22:18.457Z,36.66
2023-03-29T14:24:59.305Z,36.93
2023-03-29T14:27:34.217Z,36.70
2023-03-29T14:30:23.060Z,36.77
2023-03-29T14:32:57.273Z,36.69
2023-03-29T14:35:35.744Z,36.31
2023-03-29T14:38:14.048Z,36.31
2023-03-29T14:40:48.324Z,36.46
2023-03-29T14:43:24.601Z,35.70
2023-03-29T14:45:58.046Z,35.39
2023-03-29T14:48:33.788Z,35.29
2023-03-29T14:51:07.791Z,35.39
2023-03-29T14:53:43.198Z,35.18
2023-03-29T14:56:22.256Z,34.20
2023-03-29T14:58:59.367Z,34.05
2023-03-29T15:01:32.772Z,34.38
2023-03-29T15:04:09.795Z,34.57
2023-03-29T15:06:47.426Z,34.90
2023-03-29T15:09:32.578Z,35.25
2023-03-29T15:12:06.291Z,35.26
2023-03-29T15:14:39.669Z,35.86
2023-03-29T15:17:39.444Z,35.97
2023-03-29T15:20:39.010Z,36.30
2023-03-29T15:23:24.793Z,36.44
2023-03-29T15:26:00.254Z,36.42
2023-03-29T15:28:48.109Z,36.32
2023-03-29T15:31:23.964Z,36.83
2023-03-29T15:34:15.316Z,36.93
2023-03-29T15:36:48.820Z,37.84
2023-03-29T15:39:23.279Z,38.71
2023-03-29T15:41:57.901Z,38.97
2023-03-29T15:44:36.061Z,39.39
2023-03-29T15:47:17.305Z,39.43
2023-03-29T15:49:50.256Z,39.13
2023-03-29T15:52:23.282Z,39.16
2023-03-29T15:54:55.954Z,39.56
2023-03-29T15:57:29.266Z,39.68
2023-03-29T16:00:03.368Z,40.47
2023-03-29T16:02:47.005Z,40.64
2023-03-29T16:05:22.333Z,40.69
2023-03-29T16:07:56.024Z,40.58
2023-03-29T16:10:31.515Z,40.66
2023-03-29T16:13:05.413Z,40.91
2023-03-29T16:15:39.636Z,40.93
2023-03-29T16:18:13.306Z,41.49
2023-03-29T16:20:47.230Z,41.46
2023-03-29T16:23:21.371Z,40.85
2023-03-29T16:25:55.041Z,41.41
2023-03-29T16:28:29.097Z,41.44
2023-03-29T16:31:02.795Z,41.22
2023-03-29T16:33:36.328Z,41.47
2023-03-29T16:36:12.126Z,41.88
2023-03-29T16:38:45.447Z,41.85
2023-03-29T16:41:19.331Z,41.44
2023-03-29T16:43:53.327Z,41.51
2023-03-29T16:46:27.660Z,41.82
2023-03-29T16:49:01.082Z,42.00
2023-03-29T16:51:34.237Z,42.39
2023-03-29T16:54:08.144Z,42.50
2023-03-29T16:56:41.528Z,42.48
2023-03-29T16:59:14.731Z,42.66
2023-03-29T17:01:47.878Z,42.60
2023-03-29T17:04:21.534Z,42.22
2023-03-29T17:06:55.456Z,42.27
2023-03-29T17:09:29.938Z,42.01
2023-03-29T17:12:03.820Z,42.33
2023-03-29T17:14:38.131Z,42.45
2023-03-29T17:17:12.531Z,42.58
2023-03-29T17:19:46.204Z,43.09
2023-03-29T17:22:19.700Z,42.95
2023-03-29T17:24:53.284Z,42.72
2023-03-29T17:27:27.526Z,42.66
2023-03-29T17:30:01.283Z,42.87
2023-03-29T17:32:36.259Z,42.89
2023-03-29T17:35:10.472Z,42.87
2023-03-29T17:37:44.513Z,43.04
2023-03-29T17:40:18.596Z,42.92
2023-03-29T17:42:53.188Z,43.40
2023-03-29T17:45:27.582Z,43.27
2023-03-29T17:48:04.097Z,43.37
2023-03-29T17:50:39.224Z,43.56
2023-03-29T17:53:14.028Z,43.41
2023-03-29T17:55:47.962Z,43.28
2023-03-29T17:58:23.182Z,43.40
2023-03-29T18:00:56.590Z,43.59
2023-03-29T18:03:35.108Z,43.79
2023-03-29T18:06:09.542Z,43.79
2023-03-29T18:08:43.048Z,43.82
2023-03-29T18:11:25.394Z,44.01
2023-03-29T18:14:01.998Z,44.41
2023-03-29T18:16:35.240Z,44.37
2023-03-29T18:19:08.763Z,44.44
2023-03-29T18:21:42.221Z,44.49
2023-03-29T18:24:16.900Z,44.48
2023-03-29T18:26:51.110Z,44.55
2023-03-29T18:29:25.098Z,44.79
2023-03-29T18:32:05.174Z,44.96
2023-03-29T18:34:39.666Z,45.03
2023-03-29T18:37:16.722Z,45.15
2023-03-29T18:39:50.989Z,45.19
2023-03-29T18:42:24.612Z,45.04
2023-03-29T18:44:57.613Z,44.98
2023-03-29T18:47:31.458Z,45.10
2023-03-29T18:50:06.340Z,45.37
2023-03-29T18:52:40.573Z,45.33
2023-03-29T18:55:14.647Z,45.34
2023-03-29T18:57:48.428Z,45.14
2023-03-29T19:00:23.026Z,45.26
2023-03-29T19:02:56.883Z,45.49
2023-03-29T19:05:32.020Z,45.68
2023-03-29T19:08:06.340Z,45.82
2023-03-29T19:10:40.544Z,46.34
2023-03-29T19:13:13.393Z,46.02
2023-03-29T19:15:48.229Z,45.94
2023-03-29T19:18:21.485Z,45.94
2023-03-29T19:20:57.737Z,45.86
2023-03-29T19:23:31.336Z,45.95
2023-03-29T19:26:09.158Z,45.83
2023-03-29T19:28:43.276Z,45.95
2023-03-29T19:31:16.849Z,46.15
2023-03-29T19:33:50.622Z,46.03
2023-03-29T19:36:24.256Z,46.18
2023-03-29T19:38:57.393Z,46.26
2023-03-29T19:41:31.482Z,46.27
2023-03-29T19:44:06.092Z,46.28
2023-03-29T19:46:39.832Z,46.53
2023-03-29T19:49:16.071Z,46.64
2023-03-29T19:51:49.436Z,46.96
2023-03-29T19:54:22.732Z,46.77
2023-03-29T19:56:57.844Z,46.80
2023-03-29T19:59:32.005Z,46.70
2023-03-29T20:02:05.277Z,47.11
2023-03-29T20:04:38.417Z,47.27
2023-03-29T20:07:11.823Z,47.02
2023-03-29T20:09:45.437Z,47.23
2023-03-29T20:12:19.258Z,47.05
2023-03-29T20:14:53.227Z,47.16
2023-03-29T20:17:32.980Z,47.33
2023-03-29T20:20:09.936Z,47.29
2023-03-29T20:22:46.109Z,47.46
2023-03-29T20:25:19.885Z,47.60
2023-03-29T20:27:53.936Z,47.70
2023-03-29T20:30:27.621Z,47.88
2023-03-29T20:33:01.388Z,48.02
2023-03-29T20:35:35.642Z,48.22
2023-03-29T20:38:09.321Z,48.21
2023-03-29T20:40:43.426Z,48.37
2023-03-29T20:43:20.851Z,48.50
2023-03-29T20:45:55.903Z,48.42
2023-03-29T20:48:32.629Z,48.67
2023-03-29T20:51:11.123Z,48.69
2023-03-29T20:53:44.514Z,48.53
2023-03-29T20:56:19.572Z,48.52
2023-03-29T20:58:56.254Z,48.45
2023-03-29T21:01:30.601Z,48.32
2023-03-29T21:04:05.184Z,48.16
2023-03-29T21:06:42.069Z,48.11
2023-03-29T21:09:15.809Z,48.24
2023-03-29T21:11:49.572Z,48.32
2023-03-29T21:14:23.335Z,48.33
2023-03-29T21:16:56.775Z,48.17
2023-03-29T21:19:30.061Z,48.35
2023-03-29T21:22:02.997Z,48.41
2023-03-29T21:24:36.972Z,48.50
2023-03-29T21:27:10.155Z,48.48
2023-03-29T21:29:43.285Z,48.42
2023-03-29T21:32:16.431Z,48.52
2023-03-29T21:34:49.765Z,48.53
2023-03-29T21:37:22.935Z,48.56
2023-03-29T21:39:56.020Z,48.86
2023-03-29T21:42:29.051Z,48.62
2023-03-29T21:45:02.450Z,48.54
2023-03-29T21:47:35.741Z,48.39
2023-03-29T21:50:09.905Z,48.35
2023-03-29T21:52:43.286Z,48.52
2023-03-29T21:55:17.073Z,49.08
2023-03-29T21:57:51.710Z,48.57
2023-03-29T22:00:25.664Z,48.03
2023-03-29T22:02:59.049Z,47.83
2023-03-29T22:05:33.536Z,47.66
2023-03-29T22:08:11.298Z,47.63
2023-03-29T22:10:45.376Z,47.62
2023-03-29T22:13:19.255Z,47.64
2023-03-29T22:16:01.141Z,47.74
2023-03-29T22:18:49.847Z,47.77
2023-03-29T22:21:25.082Z,47.64
2023-03-29T22:24:00.176Z,47.66
2023-03-29T22:26:34.554Z,47.83
2023-03-29T22:29:07.843Z,47.99
2023-03-29T22:31:41.940Z,47.87
2023-03-29T22:34:15.734Z,48.04
2023-03-29T22:36:49.645Z,48.18
2023-03-29T22:39:23.096Z,47.90
2023-03-29T22:41:56.875Z,48.09
2023-03-29T22:44:30.687Z,48.36
2023-03-29T22:47:03.710Z,48.14
2023-03-29T22:49:37.231Z,48.10
2023-03-29T22:52:10.498Z,48.16
2023-03-29T22:54:43.455Z,48.28
2023-03-29T22:57:17.292Z,48.66
2023-03-29T22:59:50.349Z,48.79
2023-03-29T23:02:23.539Z,48.84
2023-03-29T23:04:56.618Z,49.00
2023-03-29T23:07:30.507Z,48.98
2023-03-29T23:10:04.579Z,49.04
2023-03-29T23:12:38.038Z,49.40
2023-03-29T23:15:12.049Z,49.71
2023-03-29T23:17:45.180Z,49.78
2023-03-29T23:20:18.318Z,50.38
2023-03-29T23:22:52.043Z,50.14
2023-03-29T23:25:27.363Z,49.83
2023-03-29T23:28:01.393Z,49.78
2023-03-29T23:30:38.700Z,49.60
2023-03-29T23:33:15.617Z,49.64
2023-03-29T23:35:49.433Z,49.74
2023-03-29T23:38:24.851Z,49.59
2023-03-29T23:41:01.284Z,49.48
2023-03-29T23:43:37.842Z,49.77
2023-03-29T23:46:13.642Z,49.86
2023-03-29T23:48:50.758Z,49.60
2023-03-29T23:51:29.190Z,49.59
2023-03-29T23:54:02.886Z,49.27
2023-03-29T23:56:36.090Z,49.02
2023-03-29T23:59:09.462Z,49.00
